Terminal Aerodrome Forecast
Issued by NWS

Home | Current Version | Previous Version | Text Only | Print | Product List | Glossary On
Versions: 1 2 3 4 5 6 7 8 9 10 11 12 13 14 15
000
FTUS43 KGRB 291730
TAFAUW
TAF
KAUW 291730Z 2918/3018 27013G20KT P6SM VCSH SCT035 OVC050
      TEMPO 2918/2922 3SM SHRA BR OVC035
     FM300000 28009G14KT P6SM VCSH OVC050
     FM300200 28007KT P6SM BKN045
     FM301200 27008KT P6SM BKN025=

USA.gov is the U.S. government's official web portal to all federal, state and local government web resources and services.